Time;durP1;ratioP1;P1;durP2;ratioP2;P2;SDS_P1;SDS_P2;PMS_P1;PMS_P2;Temp;Humidity;BMP_temperature;BMP_pressure;BME280_temperature;BME280_humidity;BME280_pressure;Samples;Min_cycle;Max_cycle;Signal;HPM_P1;HPM_P2
2024/01/18 00:00:10;;;;;;;3.53;2.67;;;9.00;61.70;;;;;;5069122;28;20198;-83
2024/01/18 00:02:41;;;;;;;4.00;2.90;;;8.90;61.80;;;;;;5074213;28;20774;-83
2024/01/18 00:05:11;;;;;;;3.27;2.40;;;8.90;61.90;;;;;;5075144;28;20206;-82
2024/01/18 00:07:40;;;;;;;2.27;2.07;;;8.90;62.00;;;;;;5071512;28;20585;-83
2024/01/18 00:10:10;;;;;;;4.93;3.00;;;8.90;62.00;;;;;;5069065;28;20211;-83
2024/01/18 00:12:38;;;;;;;2.43;2.23;;;8.90;61.80;;;;;;5069056;28;20560;-84
2024/01/18 00:15:09;;;;;;;5.00;2.93;;;8.80;61.40;;;;;;5070825;28;20615;-84
2024/01/18 00:17:37;;;;;;;2.23;2.03;;;8.90;61.40;;;;;;5071432;28;21760;-83
2024/01/18 00:20:07;;;;;;;3.97;2.03;;;8.80;61.20;;;;;;5071695;28;20202;-83
2024/01/18 00:22:37;;;;;;;4.93;3.23;;;8.80;62.10;;;;;;5067872;28;20643;-83
2024/01/18 00:25:08;;;;;;;6.83;3.47;;;8.80;61.40;;;;;;5069740;28;20194;-83
2024/01/18 00:27:36;;;;;;;2.13;1.93;;;8.80;61.50;;;;;;5066726;28;20194;-84
2024/01/18 00:30:06;;;;;;;4.93;2.57;;;8.80;61.60;;;;;;5072445;28;20199;-83
2024/01/18 00:32:36;;;;;;;2.23;1.90;;;8.80;61.60;;;;;;5065891;28;20206;-84
2024/01/18 00:35:05;;;;;;;3.77;2.57;;;8.80;61.70;;;;;;5067804;28;20195;-83
2024/01/18 00:37:34;;;;;;;7.80;2.90;;;8.70;61.70;;;;;;5070021;28;20222;-83
2024/01/18 00:40:04;;;;;;;5.17;4.43;;;8.80;61.90;;;;;;5066950;28;20240;-84
2024/01/18 00:42:33;;;;;;;5.10;3.43;;;8.70;61.80;;;;;;5064659;28;20198;-83
2024/01/18 00:45:01;;;;;;;13.33;4.23;;;8.70;61.70;;;;;;5064396;28;20230;-84
2024/01/18 00:47:30;;;;;;;8.70;3.93;;;8.70;61.60;;;;;;5063266;28;20242;-84
2024/01/18 00:49:58;;;;;;;3.20;2.93;;;8.70;61.50;;;;;;5068031;28;20229;-84
2024/01/18 00:52:27;;;;;;;2.57;2.33;;;8.60;61.40;;;;;;5063887;28;20199;-83
2024/01/18 00:54:55;;;;;;;5.43;3.60;;;8.60;61.50;;;;;;5069614;28;20194;-83
2024/01/18 00:57:26;;;;;;;5.17;4.17;;;8.60;62.40;;;;;;5069399;28;20230;-84
2024/01/18 00:59:55;;;;;;;1.93;1.80;;;8.60;61.60;;;;;;5064250;28;20518;-84
2024/01/18 01:02:24;;;;;;;8.27;4.30;;;8.60;61.80;;;;;;5069733;28;21364;-83
2024/01/18 01:04:52;;;;;;;3.87;3.27;;;8.50;61.80;;;;;;5067401;28;20636;-82
2024/01/18 01:07:21;;;;;;;5.43;3.30;;;8.60;62.00;;;;;;5062381;28;20194;-83
2024/01/18 01:09:49;;;;;;;2.70;2.50;;;8.60;62.20;;;;;;5069225;28;20569;-83
2024/01/18 01:12:18;;;;;;;2.07;1.87;;;8.50;62.20;;;;;;5065046;28;20739;-81
2024/01/18 01:14:48;;;;;;;3.07;2.50;;;8.50;62.20;;;;;;5062341;28;20206;-81
2024/01/18 01:17:16;;;;;;;3.33;2.37;;;8.50;62.30;;;;;;5068266;28;20182;-81
2024/01/18 01:19:45;;;;;;;5.60;3.30;;;8.50;62.50;;;;;;5065214;28;20194;-81
2024/01/18 01:22:14;;;;;;;8.93;3.40;;;8.50;63.30;;;;;;5069022;28;20194;-80
2024/01/18 01:24:42;;;;;;;4.23;2.50;;;8.50;62.50;;;;;;5068333;28;20205;-81
2024/01/18 01:27:11;;;;;;;4.53;3.87;;;8.40;62.50;;;;;;5066049;28;20293;-80
2024/01/18 01:29:39;;;;;;;5.40;2.23;;;8.40;62.50;;;;;;5059590;28;20190;-81
2024/01/18 01:32:09;;;;;;;3.27;2.47;;;8.40;62.50;;;;;;5062806;28;20202;-81
2024/01/18 01:34:38;;;;;;;5.47;2.20;;;8.40;62.50;;;;;;5064622;28;20264;-81
2024/01/18 01:37:06;;;;;;;7.87;3.60;;;8.40;62.60;;;;;;5071007;28;20225;-82
2024/01/18 01:39:35;;;;;;;5.13;3.93;;;8.40;62.70;;;;;;5066578;28;20218;-81
2024/01/18 01:42:04;;;;;;;2.70;2.50;;;8.40;62.70;;;;;;5062651;28;20194;-81
2024/01/18 01:44:33;;;;;;;9.47;3.23;;;8.40;62.70;;;;;;5065086;28;20626;-82
2024/01/18 01:47:01;;;;;;;2.17;2.07;;;8.40;62.80;;;;;;5066824;28;20190;-81
2024/01/18 01:49:31;;;;;;;4.37;2.37;;;8.40;62.90;;;;;;5065077;28;20206;-80
2024/01/18 01:52:00;;;;;;;2.00;1.83;;;8.40;62.80;;;;;;5066375;28;20202;-81
2024/01/18 01:54:30;;;;;;;3.20;2.87;;;8.40;62.90;;;;;;5061293;28;20294;-81
2024/01/18 01:57:01;;;;;;;4.17;3.40;;;8.40;62.70;;;;;;5065272;28;20194;-81
2024/01/18 01:59:31;;;;;;;6.20;4.07;;;8.30;62.60;;;;;;5064437;28;20226;-81
2024/01/18 02:01:59;;;;;;;6.90;3.77;;;8.30;62.60;;;;;;5065669;28;20230;-81
2024/01/18 02:04:29;;;;;;;11.53;3.87;;;8.30;62.60;;;;;;5063537;28;20195;-80
2024/01/18 02:07:00;;;;;;;4.83;4.20;;;8.30;62.60;;;;;;5066800;28;20206;-81
2024/01/18 02:09:29;;;;;;;5.07;3.03;;;8.20;62.70;;;;;;5066109;28;20430;-81
2024/01/18 02:11:59;;;;;;;4.07;3.20;;;8.20;62.90;;;;;;5065520;28;20264;-80
2024/01/18 02:14:29;;;;;;;5.50;2.73;;;8.20;62.90;;;;;;5064552;28;20230;-80
2024/01/18 02:16:58;;;;;;;5.07;3.10;;;8.10;62.90;;;;;;5060475;28;20253;-81
2024/01/18 02:19:26;;;;;;;3.90;3.60;;;8.10;62.90;;;;;;5066178;28;20226;-81
2024/01/18 02:21:55;;;;;;;9.17;3.67;;;8.10;62.90;;;;;;5069781;28;20686;-80
2024/01/18 02:24:32;;;;;;;6.97;5.07;;;8.10;62.90;;;;;;5066903;28;20558;-80
2024/01/18 02:27:01;;;;;;;5.53;3.67;;;8.00;62.90;;;;;;5066872;28;20206;-80
2024/01/18 02:29:30;;;;;;;4.63;3.33;;;8.00;63.00;;;;;;5055820;28;20668;-80
2024/01/18 02:31:59;;;;;;;4.03;3.23;;;8.00;63.00;;;;;;5052407;28;20218;-80
2024/01/18 02:34:27;;;;;;;5.50;2.87;;;7.90;62.70;;;;;;5065717;28;20202;-80
2024/01/18 02:36:56;;;;;;;10.37;4.70;;;7.90;62.70;;;;;;5055819;28;20205;-80
2024/01/18 02:39:25;;;;;;;5.47;3.43;;;7.90;62.70;;;;;;5069568;28;20602;-79
2024/01/18 02:41:55;;;;;;;7.00;2.60;;;7.80;62.50;;;;;;5065584;28;20918;-79
2024/01/18 02:44:26;;;;;;;3.13;2.87;;;7.80;62.60;;;;;;5061488;28;20214;-80
2024/01/18 02:46:55;;;;;;;3.87;3.20;;;7.80;62.60;;;;;;5061523;28;20198;-80
2024/01/18 02:49:23;;;;;;;1.97;1.77;;;7.80;62.40;;;;;;5065078;28;20210;-81
2024/01/18 02:51:52;;;;;;;3.83;3.13;;;7.80;62.30;;;;;;5065395;28;20194;-82
2024/01/18 02:54:20;;;;;;;2.50;2.30;;;7.80;62.10;;;;;;5064916;28;20661;-81
2024/01/18 02:56:49;;;;;;;3.60;3.30;;;7.80;61.50;;;;;;5066790;28;20198;-82
2024/01/18 02:59:18;;;;;;;3.13;2.10;;;7.80;61.60;;;;;;5069724;28;20240;-82
2024/01/18 03:01:48;;;;;;;1.23;1.13;;;7.80;61.80;;;;;;5063008;28;20230;-81
2024/01/18 03:04:17;;;;;;;6.47;3.73;;;7.80;62.10;;;;;;5067594;28;20199;-80
2024/01/18 03:06:45;;;;;;;4.13;3.77;;;7.80;62.30;;;;;;5069538;28;20226;-81
2024/01/18 03:09:14;;;;;;;6.97;4.27;;;7.80;62.40;;;;;;5067716;28;20195;-82
2024/01/18 03:11:45;;;;;;;11.93;4.10;;;7.80;62.60;;;;;;5058450;28;20193;-82
2024/01/18 03:14:13;;;;;;;5.10;4.03;;;7.70;62.50;;;;;;5065137;28;20198;-83
2024/01/18 03:16:42;;;;;;;9.23;3.67;;;7.70;62.70;;;;;;5070598;28;20217;-82
2024/01/18 03:19:13;;;;;;;5.53;3.23;;;7.70;62.80;;;;;;5063733;28;20226;-82
2024/01/18 03:21:42;;;;;;;4.20;3.40;;;7.70;62.80;;;;;;5075421;28;20193;-83
2024/01/18 03:24:10;;;;;;;2.63;2.43;;;7.70;62.80;;;;;;5064515;28;20255;-82
2024/01/18 03:26:39;;;;;;;4.27;3.00;;;7.70;63.70;;;;;;5071791;28;20209;-82
2024/01/18 03:29:09;;;;;;;3.47;2.97;;;7.70;63.80;;;;;;5069751;28;20186;-83
2024/01/18 03:31:37;;;;;;;2.90;2.60;;;7.70;63.00;;;;;;5062470;28;20201;-83
2024/01/18 03:34:09;;;;;;;3.57;3.27;;;7.70;62.90;;;;;;5060874;28;20271;-82
2024/01/18 03:36:39;;;;;;;11.53;4.57;;;7.70;62.80;;;;;;5058685;28;20214;-83
2024/01/18 03:39:09;;;;;;;4.60;3.43;;;7.70;62.70;;;;;;5067198;28;20258;-83
2024/01/18 03:41:37;;;;;;;8.60;4.23;;;7.70;62.40;;;;;;5069056;28;20295;-83
2024/01/18 03:44:06;;;;;;;3.47;3.17;;;7.80;62.50;;;;;;5068673;28;20214;-83
2024/01/18 03:46:34;;;;;;;2.33;2.13;;;7.80;62.30;;;;;;5066487;28;20270;-83
2024/01/18 03:49:03;;;;;;;3.10;2.17;;;7.80;62.40;;;;;;5058703;28;20725;-83
2024/01/18 03:51:31;;;;;;;4.63;2.33;;;7.80;62.50;;;;;;5068552;28;20723;-83
2024/01/18 03:54:01;;;;;;;4.03;3.20;;;7.80;62.60;;;;;;5073736;28;20198;-82
2024/01/18 03:56:33;;;;;;;1.93;1.77;;;7.80;62.70;;;;;;5067949;28;20649;-83
2024/01/18 03:59:02;;;;;;;1.80;1.70;;;7.80;62.80;;;;;;5066670;28;20217;-83
2024/01/18 04:01:32;;;;;;;6.47;3.13;;;7.80;62.90;;;;;;5069122;28;20237;-83
2024/01/18 04:04:03;;;;;;;3.47;3.17;;;7.80;63.00;;;;;;5066735;28;20208;-82
2024/01/18 04:06:32;;;;;;;1.77;1.37;;;7.90;63.00;;;;;;5064119;28;20191;-80
2024/01/18 04:11:44;;;;;;;2.67;2.47;;;7.90;62.90;;;;;;5066842;28;20198;-81
2024/01/18 04:14:13;;;;;;;2.73;1.97;;;7.90;63.00;;;;;;5065668;28;20235;-83
2024/01/18 04:16:42;;;;;;;2.87;2.67;;;7.90;62.80;;;;;;5063264;28;20194;-84
2024/01/18 04:19:11;;;;;;;4.53;4.13;;;8.00;62.90;;;;;;5071774;28;20226;-84
2024/01/18 04:21:39;;;;;;;4.73;3.77;;;8.00;63.00;;;;;;5069635;28;20191;-83
2024/01/18 04:24:11;;;;;;;4.77;3.10;;;8.00;63.00;;;;;;5063771;28;20735;-84
2024/01/18 04:26:39;;;;;;;4.00;3.13;;;7.90;62.90;;;;;;5064870;28;20202;-83
2024/01/18 04:29:08;;;;;;;4.73;2.23;;;8.00;63.00;;;;;;5061616;28;20202;-83
2024/01/18 04:31:36;;;;;;;3.17;2.97;;;8.00;63.20;;;;;;5067778;28;20278;-83
2024/01/18 04:34:05;;;;;;;2.23;1.63;;;8.00;63.30;;;;;;5064714;28;20544;-83
2024/01/18 04:36:33;;;;;;;3.60;3.00;;;8.10;64.20;;;;;;5065832;28;20186;-83
2024/01/18 04:39:05;;;;;;;5.30;2.70;;;8.10;63.40;;;;;;5062538;28;20199;-83
2024/01/18 04:41:35;;;;;;;3.70;2.43;;;8.10;63.30;;;;;;5065944;28;20737;-84
2024/01/18 04:44:05;;;;;;;5.83;2.93;;;8.10;63.10;;;;;;5055145;28;20575;-83
2024/01/18 04:46:34;;;;;;;2.40;2.20;;;8.10;63.10;;;;;;5063445;28;20217;-83
2024/01/18 04:49:03;;;;;;;4.33;1.83;;;8.10;63.10;;;;;;5057905;28;20838;-83
2024/01/18 04:51:31;;;;;;;1.90;1.50;;;8.10;63.10;;;;;;5064070;28;20242;-83
2024/01/18 04:54:00;;;;;;;2.00;1.80;;;8.20;63.20;;;;;;5070467;28;20621;-83
2024/01/18 04:56:28;;;;;;;4.03;2.50;;;8.20;63.20;;;;;;5069046;28;20263;-83
2024/01/18 04:58:59;;;;;;;0.90;0.90;;;8.20;63.20;;;;;;5069282;28;20185;-83
2024/01/18 05:01:27;;;;;;;5.80;2.47;;;8.20;63.20;;;;;;5067274;28;20703;-84
2024/01/18 05:03:56;;;;;;;2.20;1.90;;;8.20;63.30;;;;;;5061261;28;20208;-83
2024/01/18 05:06:25;;;;;;;1.50;1.40;;;8.30;63.40;;;;;;5066147;28;20202;-84
2024/01/18 05:08:55;;;;;;;4.03;2.87;;;8.20;63.30;;;;;;5069612;28;20213;-83
2024/01/18 05:11:25;;;;;;;5.80;3.53;;;8.20;63.30;;;;;;5062459;28;20600;-83
2024/01/18 05:13:54;;;;;;;7.10;4.10;;;8.20;63.40;;;;;;5066295;28;20619;-84
2024/01/18 05:16:25;;;;;;;3.17;2.50;;;8.20;63.60;;;;;;5068529;28;20270;-84
2024/01/18 05:18:54;;;;;;;3.83;2.17;;;8.20;63.60;;;;;;5068123;28;20202;-84
2024/01/18 05:21:23;;;;;;;1.90;1.70;;;8.20;63.60;;;;;;5071168;28;20232;-84
2024/01/18 05:23:52;;;;;;;3.87;3.50;;;8.20;63.90;;;;;;5061986;28;20198;-83
2024/01/18 05:26:20;;;;;;;5.03;3.63;;;8.20;64.10;;;;;;5061748;28;20210;-84
2024/01/18 05:28:50;;;;;;;3.23;2.93;;;8.20;64.10;;;;;;5061926;28;20208;-81
2024/01/18 05:31:19;;;;;;;2.77;2.53;;;8.20;64.20;;;;;;5066869;28;20190;-83
2024/01/18 05:33:48;;;;;;;4.53;2.73;;;8.20;64.70;;;;;;5069603;28;20203;-82
2024/01/18 05:36:17;;;;;;;2.77;2.43;;;8.20;64.30;;;;;;5061678;28;20359;-83
2024/01/18 05:38:46;;;;;;;2.73;2.53;;;8.10;64.40;;;;;;5071255;28;20194;-82
2024/01/18 05:41:14;;;;;;;2.57;2.23;;;8.20;64.50;;;;;;5059457;28;20219;-80
2024/01/18 05:43:43;;;;;;;2.80;2.60;;;8.10;64.70;;;;;;5060860;28;20650;-80
2024/01/18 05:46:14;;;;;;;1.43;1.33;;;8.10;64.70;;;;;;5069857;28;20202;-82
2024/01/18 05:48:45;;;;;;;3.33;3.03;;;8.10;64.90;;;;;;5061486;28;20202;-83
2024/01/18 05:51:15;;;;;;;3.87;2.90;;;8.10;65.00;;;;;;5067111;28;20224;-80
2024/01/18 05:53:44;;;;;;;2.33;2.13;;;8.10;65.00;;;;;;5064318;28;20259;-81
2024/01/18 05:56:13;;;;;;;5.43;2.33;;;8.10;65.20;;;;;;5063456;28;20214;-84
2024/01/18 05:58:55;;;;;;;3.90;2.63;;;8.10;65.40;;;;;;5066166;28;20195;-84
2024/01/18 06:01:23;;;;;;;2.10;1.90;;;8.10;65.50;;;;;;5066694;28;20309;-83
2024/01/18 06:03:52;;;;;;;2.67;2.47;;;8.10;65.90;;;;;;5065051;28;20656;-84
2024/01/18 06:06:22;;;;;;;2.20;2.00;;;8.10;65.90;;;;;;5065216;28;20190;-82
2024/01/18 06:08:51;;;;;;;4.13;2.20;;;8.10;65.90;;;;;;5063444;28;20244;-82
2024/01/18 06:11:20;;;;;;;7.73;3.07;;;8.10;65.80;;;;;;5067582;28;20198;-83
2024/01/18 06:13:48;;;;;;;2.20;2.00;;;8.10;65.80;;;;;;5066379;28;20198;-83
2024/01/18 06:16:17;;;;;;;4.57;2.07;;;8.10;66.00;;;;;;5063300;28;20201;-84
2024/01/18 06:18:45;;;;;;;2.30;2.17;;;8.00;65.60;;;;;;5063948;28;20191;-84
2024/01/18 06:21:14;;;;;;;3.50;2.10;;;7.90;65.50;;;;;;5064075;28;20222;-83
2024/01/18 06:23:44;;;;;;;5.97;3.00;;;7.90;65.50;;;;;;5066149;28;20289;-84
2024/01/18 06:28:55;;;;;;;5.40;3.33;;;7.90;65.80;;;;;;5069465;28;20197;-83
2024/01/18 06:31:27;;;;;;;1.63;1.53;;;7.90;65.70;;;;;;5067745;28;20271;-83
2024/01/18 06:34:04;;;;;;;2.37;2.13;;;7.90;65.90;;;;;;5064115;28;20714;-85
2024/01/18 06:36:34;;;;;;;6.80;3.43;;;7.90;66.10;;;;;;5068949;28;20306;-84
2024/01/18 06:39:03;;;;;;;3.13;1.70;;;7.90;66.20;;;;;;5072627;28;20221;-84
2024/01/18 06:41:32;;;;;;;1.67;1.57;;;7.90;66.30;;;;;;5070470;28;20223;-86
2024/01/18 06:44:01;;;;;;;3.70;2.17;;;7.90;66.40;;;;;;5067118;28;20660;-83
2024/01/18 06:46:31;;;;;;;2.23;1.83;;;7.90;66.60;;;;;;5066703;28;24951;-85
2024/01/18 06:54:26;;;;;;;5.30;4.40;;;8.00;67.90;;;;;;5063134;28;20194;-84
2024/01/18 07:02:34;;;;;;;5.77;2.70;;;8.10;68.70;;;;;;5072920;28;20226;-87
2024/01/18 07:10:47;;;;;;;7.63;1.90;;;8.10;69.30;;;;;;5069225;28;20205;-84
2024/01/18 07:13:16;;;;;;;2.63;2.43;;;8.10;69.40;;;;;;5066173;28;20205;-86
2024/01/18 07:15:44;;;;;;;4.63;3.03;;;8.10;69.90;;;;;;5068309;28;20697;-88
2024/01/18 07:18:13;;;;;;;1.17;1.07;;;8.10;70.00;;;;;;5070588;28;20576;-86
2024/01/18 07:20:42;;;;;;;2.50;1.57;;;8.20;70.50;;;;;;5074366;28;20194;-85
2024/01/18 07:23:11;;;;;;;2.43;2.23;;;8.20;71.00;;;;;;5073010;28;20201;-88
2024/01/18 07:25:39;;;;;;;1.57;1.47;;;8.10;71.10;;;;;;5071813;28;20205;-88
2024/01/18 07:28:09;;;;;;;1.50;1.40;;;8.10;70.90;;;;;;5071064;28;20201;-88
2024/01/18 07:30:38;;;;;;;4.43;3.37;;;8.10;71.30;;;;;;5072657;28;20207;-89
2024/01/18 07:33:06;;;;;;;11.77;5.70;;;8.20;71.80;;;;;;5069433;28;20587;-88
2024/01/18 07:35:35;;;;;;;3.03;1.73;;;8.20;71.90;;;;;;5063400;28;20325;-88
2024/01/18 07:38:04;;;;;;;5.27;3.00;;;8.10;71.90;;;;;;5068519;28;20202;-89
2024/01/18 07:40:35;;;;;;;4.27;3.70;;;8.20;72.30;;;;;;5062102;28;20203;-89
2024/01/18 07:43:03;;;;;;;1.93;1.77;;;8.20;72.20;;;;;;5064083;28;20202;-89
2024/01/18 07:45:33;;;;;;;3.63;3.03;;;8.20;72.90;;;;;;5066877;28;20731;-88
2024/01/18 07:48:02;;;;;;;2.40;1.23;;;8.20;73.20;;;;;;5074862;28;20565;-88
2024/01/18 07:50:30;;;;;;;2.33;2.13;;;8.20;72.90;;;;;;5066489;28;20221;-84
2024/01/18 07:53:04;;;;;;;5.43;3.07;;;8.30;73.20;;;;;;5067872;28;20208;-83
2024/01/18 07:55:33;;;;;;;2.17;2.07;;;8.30;73.60;;;;;;5069457;28;20202;-84
2024/01/18 07:58:01;;;;;;;12.13;2.27;;;8.30;73.90;;;;;;5070026;28;20195;-84
2024/01/18 08:00:30;;;;;;;4.60;3.37;;;8.30;74.60;;;;;;5061705;28;20202;-88
2024/01/18 08:03:00;;;;;;;3.00;1.87;;;8.30;75.10;;;;;;5069168;28;20229;-89
2024/01/18 08:05:29;;;;;;;2.43;1.97;;;8.30;75.20;;;;;;5070417;28;20198;-87
2024/01/18 08:07:57;;;;;;;5.53;2.73;;;8.30;75.50;;;;;;5071632;28;20187;-88
2024/01/18 08:10:26;;;;;;;10.80;3.40;;;8.30;75.70;;;;;;5064785;28;20199;-88
2024/01/18 08:12:55;;;;;;;2.53;1.63;;;8.30;76.00;;;;;;5066520;28;20207;-88
2024/01/18 08:15:23;;;;;;;1.93;1.83;;;8.30;76.00;;;;;;5073091;28;20210;-86
2024/01/18 08:17:52;;;;;;;7.57;3.30;;;8.30;76.50;;;;;;5068623;28;20283;-87
2024/01/18 08:20:23;;;;;;;3.83;2.90;;;8.30;76.00;;;;;;5071839;28;20194;-88
2024/01/18 08:22:52;;;;;;;2.87;1.70;;;8.30;76.40;;;;;;5069017;28;20244;-88
2024/01/18 08:25:22;;;;;;;2.40;2.23;;;8.30;76.90;;;;;;5071264;28;20285;-89
2024/01/18 08:27:53;;;;;;;2.63;1.73;;;8.30;76.60;;;;;;5057346;28;20544;-88
2024/01/18 08:30:22;;;;;;;3.10;2.80;;;8.40;76.60;;;;;;5071676;28;20195;-87
2024/01/18 08:32:51;;;;;;;6.60;2.03;;;8.40;76.30;;;;;;5062950;28;20290;-86
2024/01/18 08:35:21;;;;;;;7.93;2.30;;;8.40;77.00;;;;;;5063175;28;20191;-87
2024/01/18 08:37:49;;;;;;;2.10;1.93;;;8.40;77.20;;;;;;5071028;28;20456;-87
2024/01/18 08:40:18;;;;;;;5.23;1.73;;;8.40;77.40;;;;;;5065109;28;20199;-88
2024/01/18 08:42:46;;;;;;;2.87;2.60;;;8.40;77.60;;;;;;5068638;28;20452;-88
2024/01/18 08:45:15;;;;;;;5.10;3.53;;;8.40;77.20;;;;;;5069899;28;20195;-88
2024/01/18 08:47:44;;;;;;;2.30;2.10;;;8.40;77.40;;;;;;5064422;28;20631;-88
2024/01/18 08:50:15;;;;;;;2.37;2.17;;;8.50;77.50;;;;;;5069466;28;20202;-88
2024/01/18 08:52:45;;;;;;;2.10;1.90;;;8.50;77.60;;;;;;5060683;28;20212;-88
2024/01/18 08:55:14;;;;;;;2.20;1.50;;;8.50;77.60;;;;;;5068140;28;20609;-89
2024/01/18 08:57:42;;;;;;;4.80;2.63;;;8.50;77.70;;;;;;5069240;28;20290;-88
2024/01/18 09:00:13;;;;;;;4.47;3.03;;;8.50;77.60;;;;;;5068824;28;20285;-90
2024/01/18 09:02:42;;;;;;;5.13;2.00;;;8.60;77.30;;;;;;5066696;28;20738;-88
2024/01/18 09:05:11;;;;;;;5.53;2.13;;;8.60;78.10;;;;;;5064009;28;20206;-86
2024/01/18 09:07:39;;;;;;;3.33;3.00;;;8.70;78.00;;;;;;5064723;28;20536;-86
2024/01/18 09:10:11;;;;;;;2.03;1.70;;;8.70;77.80;;;;;;5068434;28;20293;-87
2024/01/18 09:12:40;;;;;;;3.07;2.50;;;8.80;78.80;;;;;;5068220;28;20206;-87
2024/01/18 09:15:09;;;;;;;2.43;1.73;;;8.80;79.10;;;;;;5062771;28;20221;-87
2024/01/18 09:17:38;;;;;;;5.20;2.70;;;8.90;78.50;;;;;;5065246;28;20462;-87
2024/01/18 09:20:09;;;;;;;6.37;3.20;;;8.90;78.60;;;;;;5068074;28;20198;-87
2024/01/18 09:22:37;;;;;;;1.77;1.50;;;9.00;78.90;;;;;;5061628;28;20214;-87
2024/01/18 09:25:09;;;;;;;2.63;2.40;;;9.00;78.50;;;;;;5070416;28;20190;-87
2024/01/18 09:27:38;;;;;;;5.37;1.57;;;9.10;78.30;;;;;;5071956;28;20586;-86
2024/01/18 09:30:09;;;;;;;2.77;1.57;;;9.20;78.10;;;;;;5070217;28;20308;-87
2024/01/18 09:32:39;;;;;;;5.37;2.37;;;9.30;78.20;;;;;;5063507;28;20191;-87
2024/01/18 09:35:08;;;;;;;4.00;2.60;;;9.30;78.40;;;;;;5070838;28;20305;-87
2024/01/18 09:37:37;;;;;;;2.57;2.37;;;9.30;78.10;;;;;;5063647;28;20202;-87
2024/01/18 09:40:11;;;;;;;3.03;2.70;;;9.40;78.10;;;;;;5071379;28;20729;-87
2024/01/18 09:42:46;;;;;;;2.63;2.43;;;9.40;78.20;;;;;;5066309;28;20305;-88
2024/01/18 09:45:16;;;;;;;2.20;2.00;;;9.50;78.10;;;;;;5066745;28;20225;-87
2024/01/18 09:47:45;;;;;;;1.80;1.60;;;9.50;78.30;;;;;;5062749;28;20199;-87
2024/01/18 09:50:18;;;;;;;3.83;1.33;;;9.70;78.30;;;;;;5069010;28;20715;-87
2024/01/18 09:52:48;;;;;;;7.17;2.93;;;9.80;78.30;;;;;;5067965;28;20229;-86
2024/01/18 09:58:03;;;;;;;1.60;1.47;;;10.00;78.50;;;;;;5067907;28;20205;-86
2024/01/18 10:00:32;;;;;;;1.87;1.77;;;10.00;78.50;;;;;;5069769;28;20257;-86
2024/01/18 10:03:01;;;;;;;2.37;2.03;;;10.10;78.70;;;;;;5067426;28;20270;-86
2024/01/18 10:05:30;;;;;;;3.20;2.23;;;10.20;78.70;;;;;;5075256;28;20206;-86
2024/01/18 10:07:59;;;;;;;8.03;2.67;;;10.20;78.60;;;;;;5061485;28;20206;-87
2024/01/18 10:10:42;;;;;;;3.53;2.97;;;10.30;78.60;;;;;;5062959;28;20205;-86
2024/01/18 10:13:27;;;;;;;8.77;2.30;;;10.30;78.80;;;;;;5065360;28;20237;-87
2024/01/18 10:15:56;;;;;;;3.80;3.40;;;10.30;78.90;;;;;;5071238;28;20198;-86
2024/01/18 10:18:26;;;;;;;2.40;1.87;;;10.40;79.20;;;;;;5069891;28;20206;-87
2024/01/18 10:21:08;;;;;;;7.60;2.20;;;10.40;79.40;;;;;;5075043;28;20538;-84
2024/01/18 10:23:37;;;;;;;6.20;3.33;;;10.40;79.40;;;;;;5058208;28;20228;-84
2024/01/18 10:26:05;;;;;;;2.73;2.50;;;10.40;79.50;;;;;;5069630;28;20194;-85
2024/01/18 10:28:35;;;;;;;3.67;3.03;;;10.50;79.70;;;;;;5071871;28;20720;-85
2024/01/18 10:31:04;;;;;;;3.87;3.57;;;10.50;79.50;;;;;;5074807;28;20194;-85
2024/01/18 10:33:32;;;;;;;11.13;2.93;;;10.50;80.10;;;;;;5062800;28;20207;-85
2024/01/18 10:36:01;;;;;;;5.80;4.13;;;10.50;79.90;;;;;;5067424;28;20206;-84
2024/01/18 10:38:30;;;;;;;4.67;3.03;;;10.50;79.90;;;;;;5075008;28;20211;-85
2024/01/18 10:41:00;;;;;;;3.27;2.47;;;10.50;80.50;;;;;;5073628;28;20217;-83
2024/01/18 10:43:30;;;;;;;3.83;2.87;;;10.50;80.40;;;;;;5068873;28;20233;-84
2024/01/18 10:46:00;;;;;;;3.90;2.77;;;10.50;80.80;;;;;;5065864;28;20290;-84
2024/01/18 10:48:30;;;;;;;3.37;2.50;;;10.50;80.40;;;;;;5064318;28;20210;-84
2024/01/18 10:50:59;;;;;;;8.37;3.30;;;10.60;80.50;;;;;;5061847;28;20667;-84
2024/01/18 10:53:31;;;;;;;2.77;2.50;;;10.60;80.50;;;;;;5069682;28;20233;-83
2024/01/18 10:56:00;;;;;;;1.83;1.73;;;10.60;80.40;;;;;;5069960;28;20194;-83
2024/01/18 10:58:29;;;;;;;3.97;2.77;;;10.70;80.70;;;;;;5072667;28;20669;-84
2024/01/18 11:01:01;;;;;;;4.97;3.40;;;10.70;80.90;;;;;;5066676;28;20395;-83
2024/01/18 11:03:30;;;;;;;2.50;2.20;;;10.80;80.80;;;;;;5066563;28;20250;-83
2024/01/18 11:06:04;;;;;;;6.30;4.27;;;10.90;80.60;;;;;;5066182;28;20200;-83
2024/01/18 11:08:49;;;;;;;1.60;1.37;;;11.00;80.50;;;;;;5073018;28;20190;-84
2024/01/18 11:11:18;;;;;;;2.13;1.77;;;11.10;80.60;;;;;;5068871;28;20201;-87
2024/01/18 11:13:47;;;;;;;3.07;2.77;;;11.20;80.50;;;;;;5061955;28;20688;-89
2024/01/18 11:16:18;;;;;;;5.30;3.37;;;11.20;80.60;;;;;;5069654;28;20225;-85
2024/01/18 11:18:51;;;;;;;4.80;2.30;;;11.30;80.80;;;;;;5062022;28;20198;-87
2024/01/18 11:21:21;;;;;;;4.57;3.77;;;11.30;80.80;;;;;;5065365;28;20213;-88
2024/01/18 11:23:49;;;;;;;3.10;2.87;;;11.30;80.80;;;;;;5073331;28;20210;-86
2024/01/18 11:26:21;;;;;;;2.80;2.40;;;11.30;81.10;;;;;;5068331;28;20254;-86
2024/01/18 11:28:50;;;;;;;1.90;1.57;;;11.40;81.10;;;;;;5062670;28;20198;-87
2024/01/18 11:31:47;;;;;;;3.67;3.27;;;11.30;81.40;;;;;;5065054;28;20199;-87
2024/01/18 11:34:31;;;;;;;5.40;2.43;;;11.40;81.40;;;;;;5064856;28;20566;-87
2024/01/18 11:39:56;;;;;;;2.60;2.30;;;11.40;81.90;;;;;;5070104;28;20325;-86
2024/01/18 11:45:16;;;;;;;2.43;2.23;;;11.50;81.60;;;;;;5067621;28;20198;-86
2024/01/18 11:47:47;;;;;;;3.17;1.97;;;11.50;81.80;;;;;;5070705;28;20199;-88
2024/01/18 11:50:17;;;;;;;3.77;2.57;;;11.60;81.80;;;;;;5071300;28;20281;-87
2024/01/18 11:52:48;;;;;;;2.77;2.57;;;11.60;81.80;;;;;;5065789;28;20240;-90
2024/01/18 11:55:17;;;;;;;2.30;2.00;;;11.70;81.60;;;;;;5059609;28;20206;-88
2024/01/18 11:57:48;;;;;;;2.47;2.27;;;11.80;81.60;;;;;;5068503;28;20206;-89
2024/01/18 12:00:31;;;;;;;3.00;2.70;;;11.90;81.70;;;;;;5060664;28;20273;-88
2024/01/18 12:03:17;;;;;;;3.90;2.07;;;12.00;82.10;;;;;;5074714;28;20225;-87
2024/01/18 12:05:47;;;;;;;2.93;2.33;;;12.00;82.10;;;;;;5065886;28;20202;-87
2024/01/18 12:08:16;;;;;;;3.13;2.30;;;12.10;82.70;;;;;;5088191;28;20574;-87
2024/01/18 12:10:46;;;;;;;2.57;2.37;;;12.20;82.80;;;;;;5072386;28;20200;-87
2024/01/18 12:13:17;;;;;;;1.63;1.50;;;12.30;83.20;;;;;;5057113;28;20217;-89
2024/01/18 12:18:39;;;;;;;1.73;1.63;;;12.40;83.20;;;;;;5064550;28;20657;-87
2024/01/18 12:23:54;;;;;;;3.30;2.27;;;12.50;83.70;;;;;;5074123;28;20218;-88
2024/01/18 12:26:23;;;;;;;3.90;2.23;;;12.50;83.00;;;;;;5074893;28;20506;-89
2024/01/18 12:28:53;;;;;;;12.97;1.83;;;12.50;83.00;;;;;;5070389;28;20209;-84
2024/01/18 12:34:05;;;;;;;4.43;2.30;;;12.60;82.80;;;;;;5065871;28;20248;-88
2024/01/18 12:39:30;;;;;;;3.40;2.17;;;12.60;82.80;;;;;;5064729;28;20217;-88
2024/01/18 12:41:59;;;;;;;2.47;2.07;;;12.60;83.10;;;;;;5072821;28;20190;-87
2024/01/18 12:44:29;;;;;;;1.60;1.50;;;12.70;83.10;;;;;;5067668;28;20214;-86
2024/01/18 12:46:58;;;;;;;1.70;1.47;;;12.70;83.10;;;;;;5066171;28;20226;-86
2024/01/18 12:49:34;;;;;;;1.77;1.50;;;12.80;83.20;;;;;;5072819;28;20194;-87
2024/01/18 12:52:04;;;;;;;3.33;2.37;;;12.80;83.20;;;;;;5073331;28;20187;-88
2024/01/18 12:54:33;;;;;;;0.80;0.80;;;12.80;83.10;;;;;;5071423;28;20235;-87
2024/01/18 12:57:15;;;;;;;5.13;1.53;;;12.80;83.50;;;;;;5064504;28;20259;-85
2024/01/18 13:05:23;;;;;;;1.03;0.83;;;12.90;82.50;;;;;;5068809;28;20218;-88
2024/01/18 13:07:52;;;;;;;2.40;1.73;;;13.00;82.40;;;;;;5072456;28;20208;-87
2024/01/18 13:10:21;;;;;;;3.60;2.00;;;13.00;82.30;;;;;;5070319;28;20226;-89
2024/01/18 13:15:32;;;;;;;2.87;2.23;;;13.10;82.50;;;;;;5061757;28;20206;-87
2024/01/18 13:18:03;;;;;;;0.90;0.73;;;13.10;82.50;;;;;;5060960;28;20629;-87
2024/01/18 13:20:33;;;;;;;2.70;1.30;;;13.10;82.60;;;;;;5073185;28;20201;-88
2024/01/18 13:23:03;;;;;;;2.03;1.87;;;13.00;82.60;;;;;;5066248;28;20701;-86
2024/01/18 13:25:31;;;;;;;1.53;1.43;;;13.10;82.40;;;;;;5064647;28;20581;-86
2024/01/18 13:30:43;;;;;;;2.10;1.00;;;13.10;82.30;;;;;;5071019;28;20201;-86
2024/01/18 13:33:14;;;;;;;1.80;1.27;;;13.20;82.30;;;;;;5060185;28;20264;-86
2024/01/18 13:35:44;;;;;;;1.13;1.07;;;13.10;81.80;;;;;;5068602;28;20198;-87
2024/01/18 13:38:12;;;;;;;1.23;1.13;;;13.20;81.50;;;;;;5070374;28;20191;-87
2024/01/18 13:40:41;;;;;;;0.97;0.87;;;13.30;81.30;;;;;;5066152;28;20201;-86
2024/01/18 13:43:09;;;;;;;2.87;0.70;;;13.30;81.10;;;;;;5071569;28;20199;-86
2024/01/18 13:45:38;;;;;;;0.87;0.87;;;13.30;80.80;;;;;;5065704;28;20219;-86
2024/01/18 13:48:07;;;;;;;1.60;1.07;;;13.30;80.80;;;;;;5069011;28;20199;-83
2024/01/18 13:50:36;;;;;;;1.90;1.63;;;13.30;80.60;;;;;;5069591;28;20565;-82
2024/01/18 13:53:05;;;;;;;2.13;2.03;;;13.30;80.60;;;;;;5060353;28;20198;-84
2024/01/18 13:55:36;;;;;;;1.60;1.50;;;13.20;80.50;;;;;;5062743;28;20217;-82
2024/01/18 13:58:05;;;;;;;0.80;0.80;;;13.20;80.50;;;;;;5068132;28;20194;-83